Time;durP1;ratioP1;P1;durP2;ratioP2;P2;SDS_P1;SDS_P2;PMS_P1;PMS_P2;Temp;Humidity;BMP_temperature;BMP_pressure;BME280_temperature;BME280_humidity;BME280_pressure;Samples;Min_cycle;Max_cycle;Signal;HPM_P1;HPM_P2
2023/11/11 00:01:59;;;;;;;1.27;1.10;;;;;;;;;;4850225;29;20228;-85
2023/11/11 00:05:04;;;;;;;2.33;1.17;;;;;;;;;;4839549;29;20192;-86
2023/11/11 00:08:08;;;;;;;2.17;1.03;;;;;;;;;;4850448;29;20192;-86
2023/11/11 00:11:12;;;;;;;2.00;1.27;;;;;;;;;;4838776;29;20227;-85
2023/11/11 00:14:17;;;;;;;2.27;1.33;;;;;;;;;;4828467;29;20187;-86
2023/11/11 00:17:21;;;;;;;3.47;1.20;;;;;;;;;;4828365;29;20188;-85
2023/11/11 00:20:26;;;;;;;1.37;1.03;;;;;;;;;;4839092;29;20199;-85
2023/11/11 00:23:30;;;;;;;1.53;0.87;;;;;;;;;;4850780;29;20195;-86
2023/11/11 00:26:36;;;;;;;1.70;0.97;;;;;;;;;;4837920;29;20223;-86
2023/11/11 00:29:40;;;;;;;1.67;1.10;;;;;;;;;;4850714;29;20200;-85
2023/11/11 00:32:50;;;;;;;2.47;1.23;;;;;;;;;;4827727;29;20195;-85
2023/11/11 00:35:54;;;;;;;2.87;1.03;;;;;;;;;;4828594;29;20187;-85
2023/11/11 00:38:59;;;;;;;3.20;1.03;;;;;;;;;;4827816;29;20196;-85
2023/11/11 00:42:03;;;;;;;5.43;1.37;;;;;;;;;;4827886;29;20569;-86
2023/11/11 00:45:07;;;;;;;2.57;1.10;;;;;;;;;;4838948;29;20191;-85
2023/11/11 00:48:12;;;;;;;2.40;1.10;;;;;;;;;;4837473;29;20534;-85
2023/11/11 00:51:17;;;;;;;1.53;1.00;;;;;;;;;;4827552;29;20234;-85
2023/11/11 00:54:22;;;;;;;2.27;1.13;;;;;;;;;;4827101;29;20530;-86
2023/11/11 00:57:26;;;;;;;1.80;1.23;;;;;;;;;;4826942;29;20192;-85
2023/11/11 01:00:31;;;;;;;1.93;1.40;;;;;;;;;;4827450;29;20641;-86
2023/11/11 01:03:35;;;;;;;1.70;1.17;;;;;;;;;;4827461;29;20629;-85
2023/11/11 01:06:39;;;;;;;2.40;1.03;;;;;;;;;;4837528;29;20215;-85
2023/11/11 01:09:44;;;;;;;2.20;1.20;;;;;;;;;;4837745;29;20535;-86
2023/11/11 01:12:52;;;;;;;2.17;1.00;;;;;;;;;;4838103;29;20191;-85
2023/11/11 01:15:59;;;;;;;2.07;1.10;;;;;;;;;;4827839;29;20646;-85
2023/11/11 01:19:04;;;;;;;3.40;1.30;;;;;;;;;;4827399;29;20192;-86
2023/11/11 01:22:13;;;;;;;1.93;1.23;;;;;;;;;;4837231;29;20231;-85
2023/11/11 01:25:18;;;;;;;1.10;0.80;;;;;;;;;;4837634;29;20191;-84
2023/11/11 01:28:23;;;;;;;1.53;0.80;;;;;;;;;;4827617;29;20518;-83
2023/11/11 01:31:27;;;;;;;2.67;1.20;;;;;;;;;;4827524;29;20231;-84
2023/11/11 01:34:31;;;;;;;1.90;0.93;;;;;;;;;;4837544;29;20191;-84
2023/11/11 01:37:35;;;;;;;2.03;1.00;;;;;;;;;;4838498;29;20634;-84
2023/11/11 01:40:39;;;;;;;1.73;0.90;;;;;;;;;;4827129;29;20234;-84
2023/11/11 01:43:44;;;;;;;1.20;0.97;;;;;;;;;;4837818;29;20187;-84
2023/11/11 01:46:48;;;;;;;2.90;1.00;;;;;;;;;;4837863;29;20224;-84
2023/11/11 01:49:52;;;;;;;2.50;0.83;;;;;;;;;;4848623;29;20196;-83
2023/11/11 01:52:56;;;;;;;3.97;1.03;;;;;;;;;;4836853;29;20187;-84
2023/11/11 01:56:01;;;;;;;1.07;0.93;;;;;;;;;;4836661;29;20192;-83
2023/11/11 01:59:06;;;;;;;3.33;1.00;;;;;;;;;;4836979;29;20192;-84
2023/11/11 02:02:11;;;;;;;2.17;1.00;;;;;;;;;;4836061;29;20227;-84
2023/11/11 02:05:15;;;;;;;2.37;0.93;;;;;;;;;;4827585;29;20196;-84
2023/11/11 02:08:19;;;;;;;3.63;0.90;;;;;;;;;;4826540;29;20179;-84
2023/11/11 02:11:24;;;;;;;2.07;0.87;;;;;;;;;;4836653;29;20228;-84
2023/11/11 02:14:28;;;;;;;0.77;0.70;;;;;;;;;;4827030;29;20191;-84
2023/11/11 02:17:32;;;;;;;1.43;0.90;;;;;;;;;;4837466;29;20188;-84
2023/11/11 02:20:36;;;;;;;1.40;0.93;;;;;;;;;;4836776;29;20532;-84
2023/11/11 02:23:41;;;;;;;2.10;0.70;;;;;;;;;;4826115;29;20638;-84
2023/11/11 02:26:45;;;;;;;3.93;0.90;;;;;;;;;;4825261;29;20227;-84
2023/11/11 02:29:49;;;;;;;1.40;0.60;;;;;;;;;;4824894;29;20195;-84
2023/11/11 02:32:54;;;;;;;1.83;0.60;;;;;;;;;;4825221;29;20187;-83
2023/11/11 02:35:58;;;;;;;3.20;0.73;;;;;;;;;;4824477;29;20192;-83
2023/11/11 02:39:03;;;;;;;1.10;0.70;;;;;;;;;;4824773;29;20191;-84
2023/11/11 02:42:08;;;;;;;2.33;0.87;;;;;;;;;;4846333;29;20239;-84
2023/11/11 02:45:12;;;;;;;1.97;0.67;;;;;;;;;;4824240;29;20191;-83
2023/11/11 02:48:16;;;;;;;0.80;0.70;;;;;;;;;;4823972;29;20219;-83
2023/11/11 02:51:20;;;;;;;1.37;0.67;;;;;;;;;;4846673;29;20239;-85
2023/11/11 02:54:25;;;;;;;2.07;0.70;;;;;;;;;;4835312;29;20191;-84
2023/11/11 02:57:30;;;;;;;0.87;0.70;;;;;;;;;;4835715;29;20188;-84
2023/11/11 03:00:36;;;;;;;0.70;0.70;;;;;;;;;;4824322;29;20187;-84
2023/11/11 03:03:40;;;;;;;1.13;0.80;;;;;;;;;;4846773;29;20192;-84
2023/11/11 03:06:46;;;;;;;0.90;0.80;;;;;;;;;;4827754;29;20226;-84
2023/11/11 03:09:49;;;;;;;1.43;0.80;;;;;;;;;;4828483;29;20187;-84
2023/11/11 03:12:54;;;;;;;1.63;0.70;;;;;;;;;;4828334;29;20526;-84
2023/11/11 03:15:59;;;;;;;1.30;0.70;;;;;;;;;;4829404;29;20534;-84
2023/11/11 03:19:04;;;;;;;1.33;0.67;;;;;;;;;;4839429;29;20638;-85
2023/11/11 03:22:08;;;;;;;1.83;0.70;;;;;;;;;;4828853;29;20231;-85
2023/11/11 03:25:13;;;;;;;0.70;0.60;;;;;;;;;;4850026;29;20188;-84
2023/11/11 03:28:18;;;;;;;2.93;0.73;;;;;;;;;;4850180;29;20228;-84
2023/11/11 03:31:22;;;;;;;0.70;0.60;;;;;;;;;;4838958;29;20717;-84
2023/11/11 03:34:26;;;;;;;1.43;0.70;;;;;;;;;;4838741;29;20195;-85
2023/11/11 03:37:30;;;;;;;0.70;0.70;;;;;;;;;;4838671;29;20192;-84
2023/11/11 03:40:38;;;;;;;1.17;0.77;;;;;;;;;;4839059;29;20191;-84
2023/11/11 03:43:42;;;;;;;0.87;0.80;;;;;;;;;;4839356;29;20196;-84
2023/11/11 03:46:47;;;;;;;1.33;0.80;;;;;;;;;;4849520;29;20223;-84
2023/11/11 03:49:52;;;;;;;2.03;0.80;;;;;;;;;;4828929;29;20535;-83
2023/11/11 03:52:57;;;;;;;0.90;0.80;;;;;;;;;;4828888;29;20188;-84
2023/11/11 03:56:04;;;;;;;1.27;0.60;;;;;;;;;;4838272;29;20196;-85
2023/11/11 03:59:09;;;;;;;0.97;0.80;;;;;;;;;;4849027;29;20638;-84
2023/11/11 04:02:13;;;;;;;2.30;0.83;;;;;;;;;;4838459;29;20226;-85
2023/11/11 04:05:18;;;;;;;3.53;0.70;;;;;;;;;;4838760;29;20196;-84
2023/11/11 04:08:22;;;;;;;1.37;0.80;;;;;;;;;;4849282;29;20693;-85
2023/11/11 04:11:27;;;;;;;1.23;0.80;;;;;;;;;;4827437;29;20231;-84
2023/11/11 04:14:31;;;;;;;1.27;0.90;;;;;;;;;;4838849;29;20191;-85
2023/11/11 04:17:43;;;;;;;0.73;0.73;;;;;;;;;;4827491;29;20184;-85
2023/11/11 04:20:47;;;;;;;1.63;0.70;;;;;;;;;;4838714;29;20223;-85
2023/11/11 04:23:51;;;;;;;0.80;0.60;;;;;;;;;;4849859;29;20196;-86
2023/11/11 04:26:55;;;;;;;0.63;0.60;;;;;;;;;;4838346;29;20227;-85
2023/11/11 04:30:00;;;;;;;1.60;0.73;;;;;;;;;;4850255;29;20191;-85
2023/11/11 04:33:04;;;;;;;0.80;0.70;;;;;;;;;;4838681;29;20192;-86
2023/11/11 04:36:08;;;;;;;0.97;0.60;;;;;;;;;;4838242;29;20550;-85
2023/11/11 04:39:14;;;;;;;0.53;0.50;;;;;;;;;;4827786;29;20187;-85
2023/11/11 04:42:18;;;;;;;0.77;0.50;;;;;;;;;;4838149;29;20231;-85
2023/11/11 04:45:22;;;;;;;0.87;0.60;;;;;;;;;;4850600;29;20263;-85
2023/11/11 04:48:26;;;;;;;0.53;0.50;;;;;;;;;;4849614;29;20689;-86
2023/11/11 04:51:31;;;;;;;0.40;0.40;;;;;;;;;;4837692;29;20239;-86
2023/11/11 04:54:35;;;;;;;0.50;0.50;;;;;;;;;;4849658;29;20195;-85
2023/11/11 04:57:39;;;;;;;0.40;0.40;;;;;;;;;;4838495;29;20192;-85
2023/11/11 05:00:45;;;;;;;1.40;0.50;;;;;;;;;;4837965;29;20227;-85
2023/11/11 05:03:50;;;;;;;0.87;0.50;;;;;;;;;;4838625;29;20653;-85
2023/11/11 05:06:54;;;;;;;0.60;0.43;;;;;;;;;;4827453;29;20195;-85
2023/11/11 05:09:59;;;;;;;0.40;0.40;;;;;;;;;;4837955;29;20196;-86
2023/11/11 05:13:08;;;;;;;0.70;0.50;;;;;;;;;;4850162;29;20195;-85
2023/11/11 05:16:26;;;;;;;1.77;0.50;;;;;;;;;;4849217;29;20188;-85
2023/11/11 05:19:30;;;;;;;0.30;0.30;;;;;;;;;;4837619;29;20176;-85
2023/11/11 05:22:35;;;;;;;0.77;0.60;;;;;;;;;;4848705;29;20231;-86
2023/11/11 05:25:39;;;;;;;0.90;0.50;;;;;;;;;;4827315;29;20196;-85
2023/11/11 05:28:43;;;;;;;0.40;0.40;;;;;;;;;;4837123;29;20215;-85
2023/11/11 05:31:47;;;;;;;0.43;0.40;;;;;;;;;;4849143;29;20231;-86
2023/11/11 05:34:52;;;;;;;0.50;0.47;;;;;;;;;;4849639;29;20642;-85
2023/11/11 05:37:59;;;;;;;0.50;0.50;;;;;;;;;;4837474;29;20184;-84
2023/11/11 05:41:03;;;;;;;0.50;0.40;;;;;;;;;;4825704;29;20223;-84
2023/11/11 05:44:08;;;;;;;0.50;0.40;;;;;;;;;;4836635;29;20195;-84
2023/11/11 05:47:13;;;;;;;1.33;0.53;;;;;;;;;;4826759;29;20219;-85
2023/11/11 05:50:17;;;;;;;0.87;0.50;;;;;;;;;;4848067;29;20539;-85
2023/11/11 05:53:22;;;;;;;0.50;0.50;;;;;;;;;;4848307;29;20242;-85
2023/11/11 05:56:27;;;;;;;0.60;0.60;;;;;;;;;;4848774;29;20187;-85
2023/11/11 05:59:31;;;;;;;1.00;0.80;;;;;;;;;;4848145;29;20188;-85
2023/11/11 06:02:35;;;;;;;2.20;0.60;;;;;;;;;;4836882;29;20565;-85
2023/11/11 06:05:40;;;;;;;0.40;0.40;;;;;;;;;;4846616;29;20646;-85
2023/11/11 06:08:44;;;;;;;0.40;0.40;;;;;;;;;;4836632;29;20215;-85
2023/11/11 06:11:48;;;;;;;0.97;0.57;;;;;;;;;;4826324;29;20573;-85
2023/11/11 06:14:52;;;;;;;0.50;0.50;;;;;;;;;;4825905;29;20191;-86
2023/11/11 06:17:56;;;;;;;0.67;0.60;;;;;;;;;;4825973;29;20191;-85
2023/11/11 06:21:01;;;;;;;0.70;0.70;;;;;;;;;;4836406;29;20227;-86
2023/11/11 06:24:05;;;;;;;0.90;0.63;;;;;;;;;;4826808;29;20192;-85
2023/11/11 06:27:10;;;;;;;0.90;0.50;;;;;;;;;;4836641;29;20199;-85
2023/11/11 06:30:16;;;;;;;0.50;0.50;;;;;;;;;;4836768;29;20192;-85
2023/11/11 06:33:20;;;;;;;0.73;0.70;;;;;;;;;;4847556;29;20191;-85
2023/11/11 06:36:24;;;;;;;10.63;5.13;;;;;;;;;;4848064;29;20200;-85
2023/11/11 06:39:30;;;;;;;2.70;1.73;;;;;;;;;;4836843;29;20188;-85
2023/11/11 06:42:35;;;;;;;1.53;1.40;;;;;;;;;;4836454;29;20235;-85
2023/11/11 06:45:41;;;;;;;1.20;0.90;;;;;;;;;;4836765;29;20200;-85
2023/11/11 06:48:45;;;;;;;1.13;1.00;;;;;;;;;;4847803;29;20223;-85
2023/11/11 06:51:49;;;;;;;1.10;1.00;;;;;;;;;;4825798;29;20234;-85
2023/11/11 06:54:53;;;;;;;2.40;1.80;;;;;;;;;;4825728;29;20191;-85
2023/11/11 06:57:57;;;;;;;3.23;2.40;;;;;;;;;;4836050;29;20192;-86
2023/11/11 07:01:02;;;;;;;1.50;1.40;;;;;;;;;;4826028;29;20231;-85
2023/11/11 07:04:07;;;;;;;1.73;1.60;;;;;;;;;;4836058;29;20195;-85
2023/11/11 07:07:11;;;;;;;1.37;1.10;;;;;;;;;;4836211;29;20191;-85
2023/11/11 07:10:16;;;;;;;1.97;1.70;;;;;;;;;;4836322;29;20192;-85
2023/11/11 07:13:23;;;;;;;2.20;1.87;;;;;;;;;;4836061;29;20191;-85
2023/11/11 07:16:27;;;;;;;2.60;1.70;;;;;;;;;;4836481;29;20527;-86
2023/11/11 07:19:31;;;;;;;1.20;1.00;;;;;;;;;;4847844;29;20192;-86
2023/11/11 07:22:37;;;;;;;1.60;1.20;;;;;;;;;;4835727;29;20231;-86
2023/11/11 07:25:41;;;;;;;2.03;0.90;;;;;;;;;;4836365;29;20192;-85
2023/11/11 07:28:46;;;;;;;1.47;1.00;;;;;;;;;;4847972;29;20231;-86
2023/11/11 07:31:50;;;;;;;1.97;1.20;;;;;;;;;;4848261;29;20235;-85
2023/11/11 07:34:54;;;;;;;3.67;2.40;;;;;;;;;;4848118;29;20192;-85
2023/11/11 07:38:00;;;;;;;17.90;9.30;;;;;;;;;;4835806;29;20192;-86
2023/11/11 07:41:06;;;;;;;10.07;6.87;;;;;;;;;;4825717;29;20227;-85
2023/11/11 07:44:11;;;;;;;3.33;2.93;;;;;;;;;;4849017;29;20187;-85
2023/11/11 07:47:15;;;;;;;7.60;6.73;;;;;;;;;;4826992;29;20192;-86
2023/11/11 07:50:20;;;;;;;2.90;2.60;;;;;;;;;;4836433;29;20184;-86
2023/11/11 07:53:26;;;;;;;8.33;5.80;;;;;;;;;;4839495;29;20527;-86
2023/11/11 07:56:34;;;;;;;5.20;3.70;;;;;;;;;;4839028;29;20542;-85
2023/11/11 07:59:39;;;;;;;3.47;1.33;;;;;;;;;;4851571;29;20192;-85
2023/11/11 08:02:43;;;;;;;4.73;3.20;;;;;;;;;;4828912;29;20227;-86
2023/11/11 08:05:47;;;;;;;3.17;2.70;;;;;;;;;;4839536;29;20192;-86
2023/11/11 08:08:55;;;;;;;1.23;1.13;;;;;;;;;;4838325;29;20581;-85
2023/11/11 08:11:59;;;;;;;1.03;0.90;;;;;;;;;;4851210;29;20231;-86
2023/11/11 08:15:04;;;;;;;2.50;1.27;;;;;;;;;;4829237;29;20188;-85
2023/11/11 08:18:09;;;;;;;2.00;0.80;;;;;;;;;;4838925;29;20192;-85
2023/11/11 08:21:13;;;;;;;1.60;1.10;;;;;;;;;;4838898;29;20227;-85
2023/11/11 08:24:17;;;;;;;0.83;0.80;;;;;;;;;;4838218;29;20195;-85
2023/11/11 08:27:21;;;;;;;1.17;0.80;;;;;;;;;;4827922;29;20538;-86
2023/11/11 08:30:26;;;;;;;0.80;0.80;;;;;;;;;;4828083;29;20188;-85
2023/11/11 08:33:30;;;;;;;1.00;0.90;;;;;;;;;;4827990;29;20188;-85
2023/11/11 08:36:36;;;;;;;1.73;1.00;;;;;;;;;;4828341;29;20195;-86
2023/11/11 08:39:40;;;;;;;1.10;1.00;;;;;;;;;;4838717;29;20191;-86
2023/11/11 08:42:45;;;;;;;1.97;1.07;;;;;;;;;;4849728;29;20227;-85
2023/11/11 08:45:49;;;;;;;1.53;1.00;;;;;;;;;;4849734;29;20544;-86
2023/11/11 08:48:53;;;;;;;1.43;1.30;;;;;;;;;;4849443;29;20215;-86
2023/11/11 08:51:59;;;;;;;2.67;1.50;;;;;;;;;;4829618;29;20242;-85
2023/11/11 08:55:04;;;;;;;1.80;1.20;;;;;;;;;;4837958;29;20187;-86
2023/11/11 08:58:08;;;;;;;1.30;1.20;;;;;;;;;;4827398;29;20188;-85
2023/11/11 09:01:13;;;;;;;1.30;1.10;;;;;;;;;;4848810;29;20227;-86
2023/11/11 09:04:17;;;;;;;2.60;1.00;;;;;;;;;;4838661;29;20527;-86
2023/11/11 09:07:21;;;;;;;1.23;1.10;;;;;;;;;;4837576;29;20191;-85
2023/11/11 09:10:29;;;;;;;1.20;0.97;;;;;;;;;;4827146;29;20184;-85
2023/11/11 09:13:33;;;;;;;1.57;1.00;;;;;;;;;;4827341;29;20651;-85
2023/11/11 09:16:37;;;;;;;0.93;0.87;;;;;;;;;;4837890;29;20187;-85
2023/11/11 09:19:42;;;;;;;2.10;1.10;;;;;;;;;;4847443;29;20538;-86
2023/11/11 09:22:46;;;;;;;2.20;1.40;;;;;;;;;;4826562;29;20191;-86
2023/11/11 09:25:50;;;;;;;1.67;1.20;;;;;;;;;;4837441;29;20641;-86
2023/11/11 09:28:54;;;;;;;1.50;1.13;;;;;;;;;;4836631;29;20216;-86
2023/11/11 09:32:00;;;;;;;5.50;3.90;;;;;;;;;;4848362;29;20230;-85
2023/11/11 09:35:04;;;;;;;2.10;1.70;;;;;;;;;;4837029;29;20192;-85
2023/11/11 09:38:08;;;;;;;2.50;1.53;;;;;;;;;;4849071;29;20191;-85
2023/11/11 09:41:13;;;;;;;1.57;1.30;;;;;;;;;;4847637;29;20559;-85
2023/11/11 09:44:18;;;;;;;1.27;1.00;;;;;;;;;;4836115;29;20196;-86
2023/11/11 09:47:26;;;;;;;2.30;1.13;;;;;;;;;;4836053;29;20196;-85
2023/11/11 09:50:31;;;;;;;1.67;1.00;;;;;;;;;;4836123;29;20196;-86
2023/11/11 09:53:37;;;;;;;2.37;1.10;;;;;;;;;;4835893;29;20196;-85
2023/11/11 09:56:43;;;;;;;1.83;1.10;;;;;;;;;;4833818;29;20192;-85
2023/11/11 09:59:50;;;;;;;2.60;1.47;;;;;;;;;;4824154;29;20192;-85
2023/11/11 10:02:54;;;;;;;1.63;1.10;;;;;;;;;;4835942;29;20192;-84
2023/11/11 10:06:01;;;;;;;2.40;1.43;;;;;;;;;;4834994;29;20187;-83
2023/11/11 10:09:08;;;;;;;2.47;1.17;;;;;;;;;;4846219;29;20219;-84
2023/11/11 10:12:12;;;;;;;2.57;1.27;;;;;;;;;;4833743;29;20223;-84
2023/11/11 10:15:16;;;;;;;2.80;1.27;;;;;;;;;;4823676;29;20187;-85
2023/11/11 10:18:20;;;;;;;2.77;1.20;;;;;;;;;;4823504;29;20199;-82
2023/11/11 10:21:25;;;;;;;1.10;0.90;;;;;;;;;;4846236;29;20223;-83
2023/11/11 10:24:30;;;;;;;2.33;1.43;;;;;;;;;;4846267;29;20191;-82
2023/11/11 10:27:34;;;;;;;7.20;1.90;;;;;;;;;;4846755;29;20638;-84
2023/11/11 11:16:55;;;;;;;1.80;1.50;;;;;;;;;;4826766;29;20224;-85
2023/11/11 11:39:41;;;;;;;3.47;1.33;;;;;;;;;;4868640;29;20230;-84
2023/11/11 11:42:48;;;;;;;2.67;1.50;;;;;;;;;;4849948;29;20227;-84
2023/11/11 11:45:52;;;;;;;2.50;1.33;;;;;;;;;;4850050;29;20187;-84
2023/11/11 11:48:56;;;;;;;1.73;1.10;;;;;;;;;;4841088;29;20191;-84
2023/11/11 11:52:00;;;;;;;1.30;1.20;;;;;;;;;;4839104;29;20235;-84
2023/11/11 11:55:05;;;;;;;2.17;1.17;;;;;;;;;;4839415;29;20188;-84
2023/11/11 11:58:09;;;;;;;3.23;1.20;;;;;;;;;;4850269;29;20192;-85
2023/11/11 12:01:32;;;;;;;1.70;1.10;;;;;;;;;;4839662;29;20219;-84
2023/11/11 12:04:36;;;;;;;3.30;1.30;;;;;;;;;;4850527;29;20196;-85
2023/11/11 12:07:40;;;;;;;2.13;0.90;;;;;;;;;;4839601;29;20191;-84
2023/11/11 12:10:45;;;;;;;1.70;1.07;;;;;;;;;;4849118;29;20719;-84
2023/11/11 12:13:51;;;;;;;2.13;1.30;;;;;;;;;;4854694;29;20195;-84
2023/11/11 12:16:55;;;;;;;1.67;1.20;;;;;;;;;;4851759;29;20196;-84
2023/11/11 12:20:00;;;;;;;2.10;1.00;;;;;;;;;;4840215;29;20192;-85
2023/11/11 12:23:09;;;;;;;2.27;1.20;;;;;;;;;;4838867;29;20200;-84
2023/11/11 12:26:14;;;;;;;1.50;1.10;;;;;;;;;;4848653;29;20200;-84
2023/11/11 12:29:21;;;;;;;1.73;1.27;;;;;;;;;;4848579;29;20215;-85
2023/11/11 12:32:25;;;;;;;1.10;1.00;;;;;;;;;;4837083;29;20231;-85
2023/11/11 12:35:30;;;;;;;5.23;2.90;;;;;;;;;;4837176;29;20579;-85
2023/11/11 12:38:35;;;;;;;3.07;1.40;;;;;;;;;;4836606;29;20563;-85
2023/11/11 12:41:46;;;;;;;4.97;1.80;;;;;;;;;;4837507;29;20219;-85
2023/11/11 12:44:51;;;;;;;3.60;1.60;;;;;;;;;;4852201;29;20188;-85
2023/11/11 12:47:55;;;;;;;1.97;1.30;;;;;;;;;;4851869;29;20188;-85
2023/11/11 12:50:59;;;;;;;4.33;2.30;;;;;;;;;;4838146;29;20240;-86
2023/11/11 12:54:04;;;;;;;4.97;1.80;;;;;;;;;;4848144;29;20200;-85
2023/11/11 12:57:08;;;;;;;4.70;1.80;;;;;;;;;;4849115;29;20191;-85
2023/11/11 13:00:15;;;;;;;1.13;0.83;;;;;;;;;;4836171;29;20188;-85
2023/11/11 13:03:27;;;;;;;6.03;3.17;;;;;;;;;;4847599;29;20192;-85
2023/11/11 13:06:34;;;;;;;2.70;1.60;;;;;;;;;;4847520;29;20191;-85
2023/11/11 13:09:43;;;;;;;5.17;2.77;;;;;;;;;;4849212;29;20216;-85
2023/11/11 13:12:48;;;;;;;14.53;9.07;;;;;;;;;;4816863;29;20228;-86
2023/11/11 13:15:54;;;;;;;8.90;5.50;;;;;;;;;;4828226;29;20196;-85
2023/11/11 13:19:01;;;;;;;2.00;1.80;;;;;;;;;;4828823;29;20638;-85
2023/11/11 13:22:08;;;;;;;5.00;1.37;;;;;;;;;;4818386;29;20698;-84
2023/11/11 13:25:12;;;;;;;1.90;1.70;;;;;;;;;;4818189;29;20188;-85
2023/11/11 13:28:17;;;;;;;2.07;1.70;;;;;;;;;;4829032;29;20192;-84
2023/11/11 13:31:24;;;;;;;3.37;1.40;;;;;;;;;;4828918;29;20236;-84
2023/11/11 13:34:28;;;;;;;3.97;2.60;;;;;;;;;;4829183;29;20200;-84
2023/11/11 13:37:33;;;;;;;3.40;2.20;;;;;;;;;;4807253;29;20215;-85
2023/11/11 13:40:41;;;;;;;2.67;2.27;;;;;;;;;;4829331;29;20189;-84
2023/11/11 13:43:49;;;;;;;31.30;4.83;;;;;;;;;;4828832;29;20642;-84
2023/11/11 13:46:53;;;;;;;8.20;3.00;;;;;;;;;;4829318;29;20188;-85
2023/11/11 13:49:58;;;;;;;7.33;2.30;;;;;;;;;;4817035;29;20215;-84
2023/11/11 13:53:04;;;;;;;15.67;3.60;;;;;;;;;;4828259;29;20196;-84
2023/11/11 13:56:08;;;;;;;16.83;2.60;;;;;;;;;;4828065;29;20547;-84
2023/11/11 13:59:12;;;;;;;12.57;3.20;;;;;;;;;;4816694;29;20635;-84
2023/11/11 14:02:17;;;;;;;12.53;2.53;;;;;;;;;;4827777;29;20227;-84
2023/11/11 14:05:24;;;;;;;8.20;2.40;;;;;;;;;;4817376;29;20196;-84
2023/11/11 14:08:30;;;;;;;14.77;6.67;;;;;;;;;;4828377;29;20193;-85
2023/11/11 14:11:34;;;;;;;12.73;7.00;;;;;;;;;;4827477;29;20599;-84
2023/11/11 14:14:41;;;;;;;15.03;9.57;;;;;;;;;;4817374;29;20192;-85
2023/11/11 14:17:47;;;;;;;2.73;1.80;;;;;;;;;;4828677;29;20193;-84
2023/11/11 14:20:59;;;;;;;14.17;6.83;;;;;;;;;;4816561;29;20598;-84
2023/11/11 14:24:04;;;;;;;19.50;4.23;;;;;;;;;;4806161;29;20184;-84
2023/11/11 14:27:08;;;;;;;20.67;3.50;;;;;;;;;;4816361;29;20196;-84
2023/11/11 14:30:13;;;;;;;31.60;4.57;;;;;;;;;;4828654;29;20220;-84
2023/11/11 14:33:20;;;;;;;34.73;5.53;;;;;;;;;;4826930;29;20196;-84
2023/11/11 14:36:26;;;;;;;8.90;3.20;;;;;;;;;;4827728;29;20196;-84
2023/11/11 14:39:31;;;;;;;8.27;2.53;;;;;;;;;;4827522;29;20216;-84
2023/11/11 14:42:35;;;;;;;10.53;2.20;;;;;;;;;;4827731;29;20228;-84
2023/11/11 14:45:42;;;;;;;2.97;1.37;;;;;;;;;;4827252;29;20647;-84
2023/11/11 14:48:47;;;;;;;10.23;1.83;;;;;;;;;;4827761;29;20318;-84
2023/11/11 14:51:51;;;;;;;4.00;1.70;;;;;;;;;;4891904;23;20243;-85
2023/11/11 14:54:55;;;;;;;13.03;2.07;;;;;;;;;;4843868;29;20530;-85
2023/11/11 14:58:01;;;;;;;9.23;2.00;;;;;;;;;;4843678;29;20195;-86
2023/11/11 15:01:05;;;;;;;5.07;3.30;;;;;;;;;;4847243;29;20227;-84
2023/11/11 15:04:09;;;;;;;2.00;1.50;;;;;;;;;;4850467;29;20199;-84
2023/11/11 15:07:14;;;;;;;10.83;2.30;;;;;;;;;;4848904;29;20653;-84
2023/11/11 15:10:19;;;;;;;27.03;2.77;;;;;;;;;;4848698;29;20218;-84
2023/11/11 15:13:25;;;;;;;6.63;1.57;;;;;;;;;;4850091;29;20191;-84
2023/11/11 15:16:29;;;;;;;5.60;2.87;;;;;;;;;;4848969;29;20673;-84
2023/11/11 15:19:33;;;;;;;7.17;2.70;;;;;;;;;;4849091;29;20195;-84
2023/11/11 15:22:38;;;;;;;13.73;2.27;;;;;;;;;;4849194;29;20227;-86
2023/11/11 15:25:42;;;;;;;4.20;1.47;;;;;;;;;;4858690;29;20188;-86
2023/11/11 15:28:47;;;;;;;8.90;1.80;;;;;;;;;;4849016;29;20191;-86
2023/11/11 15:31:51;;;;;;;6.87;1.93;;;;;;;;;;4848016;29;20708;-86
2023/11/11 15:34:56;;;;;;;5.13;2.23;;;;;;;;;;4848652;29;20199;-86
2023/11/11 15:38:01;;;;;;;3.13;1.70;;;;;;;;;;4848251;29;20191;-86
2023/11/11 15:41:05;;;;;;;1.70;1.60;;;;;;;;;;4849429;29;20709;-85
2023/11/11 15:44:09;;;;;;;3.30;1.30;;;;;;;;;;4837860;29;20196;-85
2023/11/11 15:47:14;;;;;;;4.73;1.30;;;;;;;;;;4847992;29;20191;-85
2023/11/11 15:50:19;;;;;;;2.70;1.83;;;;;;;;;;4848169;29;20219;-84
2023/11/11 15:53:23;;;;;;;4.17;2.37;;;;;;;;;;4848322;29;20187;-85
2023/11/11 15:56:29;;;;;;;5.30;2.40;;;;;;;;;;4848116;29;20199;-86
2023/11/11 15:59:33;;;;;;;3.77;3.00;;;;;;;;;;4858667;29;20191;-86
2023/11/11 16:02:41;;;;;;;2.67;1.87;;;;;;;;;;4847676;29;20223;-85
2023/11/11 16:05:45;;;;;;;3.00;2.70;;;;;;;;;;4847749;29;20542;-86
2023/11/11 16:08:50;;;;;;;4.80;4.40;;;;;;;;;;4848255;29;20195;-84
2023/11/11 16:11:53;;;;;;;6.60;3.40;;;;;;;;;;4846203;29;20223;-84
2023/11/11 16:14:59;;;;;;;2.57;1.97;;;;;;;;;;4847645;29;20203;-86
2023/11/11 16:18:04;;;;;;;6.07;4.90;;;;;;;;;;4848306;29;20200;-87
2023/11/11 16:21:19;;;;;;;4.73;1.97;;;;;;;;;;4847312;29;20224;-84
2023/11/11 16:24:23;;;;;;;3.30;1.97;;;;;;;;;;4848249;29;20217;-85
2023/11/11 16:27:27;;;;;;;2.80;2.60;;;;;;;;;;4848602;29;20196;-87
2023/11/11 16:30:33;;;;;;;4.33;2.30;;;;;;;;;;4847964;29;20219;-85
2023/11/11 16:33:37;;;;;;;4.27;2.57;;;;;;;;;;4848095;29;20196;-87
2023/11/11 16:36:41;;;;;;;7.43;4.40;;;;;;;;;;4846606;29;20195;-85
2023/11/11 16:39:45;;;;;;;8.53;5.47;;;;;;;;;;4847628;29;20200;-85
2023/11/11 16:42:51;;;;;;;2.87;2.57;;;;;;;;;;4847680;29;20231;-87
2023/11/11 16:45:55;;;;;;;4.37;3.50;;;;;;;;;;4848058;29;20192;-85
2023/11/11 16:48:59;;;;;;;2.93;1.90;;;;;;;;;;4847317;29;20649;-86
2023/11/11 16:52:04;;;;;;;3.57;3.20;;;;;;;;;;4847203;29;20235;-85
2023/11/11 16:55:10;;;;;;;4.03;2.60;;;;;;;;;;4847730;29;20196;-85
2023/11/11 16:58:14;;;;;;;3.30;1.87;;;;;;;;;;4846854;29;20191;-87
2023/11/11 17:01:18;;;;;;;3.07;2.20;;;;;;;;;;4847973;29;20569;-87
2023/11/11 17:04:23;;;;;;;4.50;2.80;;;;;;;;;;4846740;29;20200;-85
2023/11/11 17:07:28;;;;;;;3.60;1.70;;;;;;;;;;4846950;29;20529;-86
2023/11/11 17:10:31;;;;;;;2.87;2.30;;;;;;;;;;4836424;29;20204;-86
2023/11/11 17:13:38;;;;;;;6.30;4.47;;;;;;;;;;4847669;29;20200;-86
2023/11/11 17:16:43;;;;;;;18.57;12.27;;;;;;;;;;4848163;29;20196;-86
2023/11/11 17:19:47;;;;;;;20.17;12.53;;;;;;;;;;4856934;29;20202;-86
2023/11/11 17:22:52;;;;;;;8.57;5.13;;;;;;;;;;4856861;29;20227;-85
2023/11/11 17:25:56;;;;;;;5.20;4.10;;;;;;;;;;4845856;29;20191;-85
2023/11/11 17:29:00;;;;;;;7.40;5.00;;;;;;;;;;4847239;29;20199;-85
2023/11/11 17:32:05;;;;;;;4.80;4.30;;;;;;;;;;4847491;29;20239;-85
2023/11/11 17:35:09;;;;;;;5.03;3.53;;;;;;;;;;4847435;29;20195;-85
2023/11/11 17:38:13;;;;;;;6.30;3.20;;;;;;;;;;4845859;29;20213;-85
2023/11/11 17:41:17;;;;;;;4.83;3.80;;;;;;;;;;4846812;29;20219;-86
2023/11/11 17:44:21;;;;;;;6.53;4.10;;;;;;;;;;4846876;29;20191;-85
2023/11/11 17:47:25;;;;;;;6.63;3.10;;;;;;;;;;4846798;29;20200;-85
2023/11/11 17:50:30;;;;;;;4.43;3.33;;;;;;;;;;4846579;29;20195;-85
2023/11/11 17:53:34;;;;;;;5.17;3.20;;;;;;;;;;4845912;29;20665;-86
2023/11/11 17:56:39;;;;;;;2.87;2.30;;;;;;;;;;4846201;29;20192;-85
2023/11/11 17:59:43;;;;;;;3.20;2.30;;;;;;;;;;4847108;29;20196;-86
2023/11/11 18:02:48;;;;;;;5.13;3.27;;;;;;;;;;4846456;29;20223;-84
2023/11/11 18:05:52;;;;;;;4.13;3.20;;;;;;;;;;4844897;29;20192;-85
2023/11/11 18:08:56;;;;;;;7.27;4.13;;;;;;;;;;4845201;29;20650;-85
2023/11/11 18:12:01;;;;;;;14.17;9.30;;;;;;;;;;4845770;29;20235;-85
2023/11/11 18:15:06;;;;;;;17.60;11.37;;;;;;;;;;4834547;29;20188;-85
2023/11/11 18:18:10;;;;;;;8.70;5.73;;;;;;;;;;4844994;29;20220;-84
2023/11/11 18:21:15;;;;;;;5.10;3.87;;;;;;;;;;4834363;29;20227;-85
2023/11/11 18:24:19;;;;;;;12.43;7.77;;;;;;;;;;4844409;29;20192;-85
2023/11/11 18:27:23;;;;;;;11.43;7.87;;;;;;;;;;4845190;29;20187;-85
2023/11/11 18:30:27;;;;;;;6.37;3.50;;;;;;;;;;4844387;29;20196;-87
2023/11/11 18:33:31;;;;;;;3.37;2.70;;;;;;;;;;4845678;29;20180;-86
2023/11/11 18:36:36;;;;;;;4.00;2.70;;;;;;;;;;4844942;29;20191;-86
2023/11/11 18:39:40;;;;;;;3.37;2.40;;;;;;;;;;4855103;29;20203;-85
2023/11/11 18:42:44;;;;;;;3.30;2.47;;;;;;;;;;4844524;29;20218;-85
2023/11/11 18:45:48;;;;;;;4.63;2.73;;;;;;;;;;4844278;29;20641;-85
2023/11/11 18:48:53;;;;;;;3.47;2.70;;;;;;;;;;4843847;29;20187;-84
2023/11/11 18:51:57;;;;;;;4.77;3.03;;;;;;;;;;4842967;29;20239;-85
2023/11/11 18:55:01;;;;;;;6.40;3.10;;;;;;;;;;4844230;29;20195;-85
2023/11/11 18:58:05;;;;;;;3.03;2.50;;;;;;;;;;4843831;29;20187;-85
2023/11/11 19:01:10;;;;;;;5.27;3.03;;;;;;;;;;4854666;29;20231;-84
2023/11/11 19:04:14;;;;;;;3.03;2.53;;;;;;;;;;4854916;29;20195;-84
2023/11/11 19:07:19;;;;;;;4.27;3.03;;;;;;;;;;4854811;29;20191;-85
2023/11/11 19:10:24;;;;;;;4.17;3.07;;;;;;;;;;4844323;29;20192;-85
2023/11/11 19:13:28;;;;;;;5.90;3.20;;;;;;;;;;4845602;29;20183;-86
2023/11/11 19:16:32;;;;;;;4.97;3.10;;;;;;;;;;4845032;29;20638;-84
2023/11/11 19:19:36;;;;;;;5.73;3.00;;;;;;;;;;4844195;29;20188;-87
2023/11/11 19:22:41;;;;;;;3.77;3.13;;;;;;;;;;4844379;29;20227;-84
2023/11/11 19:25:45;;;;;;;3.70;3.00;;;;;;;;;;4843729;29;20191;-85
2023/11/11 19:28:49;;;;;;;3.53;2.37;;;;;;;;;;4844009;29;20534;-85
2023/11/11 19:31:54;;;;;;;5.53;2.90;;;;;;;;;;4844614;29;20235;-86